createdAt,value
2017-12-04T00:02:19.943Z,60.13
2017-12-04T00:04:47.315Z,60.00
2017-12-04T00:07:15.284Z,57.63
2017-12-04T00:09:42.702Z,60.50
2017-12-04T00:12:10.127Z,58.33
2017-12-04T00:14:37.543Z,57.03
2017-12-04T00:17:05.754Z,60.37
2017-12-04T00:19:34.195Z,53.33
2017-12-04T00:22:01.562Z,52.63
2017-12-04T00:24:28.992Z,56.07
2017-12-04T00:26:56.411Z,50.67
2017-12-04T00:29:23.832Z,54.67
2017-12-04T00:31:53.115Z,50.90
2017-12-04T00:34:21.300Z,52.57
2017-12-04T00:36:51.622Z,55.10
2017-12-04T00:39:20.333Z,55.53
2017-12-04T00:41:47.756Z,55.60
2017-12-04T00:44:15.952Z,53.57
2017-12-04T00:46:43.795Z,54.50
2017-12-04T00:49:11.983Z,51.00
2017-12-04T00:51:40.189Z,55.83
2017-12-04T00:54:07.607Z,51.90
2017-12-04T00:56:35.794Z,51.77
2017-12-04T00:59:03.226Z,50.67
2017-12-04T01:01:30.662Z,50.70
2017-12-04T01:03:58.067Z,49.80
2017-12-04T01:06:26.672Z,51.30
2017-12-04T01:08:54.095Z,46.77
2017-12-04T01:11:22.678Z,51.47
2017-12-04T01:13:50.871Z,50.57
2017-12-04T01:16:18.291Z,49.60
2017-12-04T01:18:45.711Z,49.23
2017-12-04T01:21:13.130Z,45.87
2017-12-04T01:23:40.559Z,51.17
2017-12-04T01:26:07.978Z,45.60
2017-12-04T01:28:35.402Z,54.70
2017-12-04T01:31:03.383Z,48.57
2017-12-04T01:33:30.811Z,49.37
2017-12-04T01:35:59.411Z,55.87
2017-12-04T01:38:26.838Z,49.00
2017-12-04T01:40:54.259Z,49.10
2017-12-04T01:43:21.692Z,57.70
2017-12-04T01:45:49.111Z,50.67
2017-12-04T01:48:16.535Z,56.57
2017-12-04T01:50:43.953Z,54.90
2017-12-04T01:53:11.379Z,55.10
2017-12-04T01:55:39.733Z,55.53
2017-12-04T01:58:07.150Z,52.30
2017-12-04T02:00:34.581Z,58.03
2017-12-04T02:03:02.540Z,52.13
2017-12-04T02:05:29.972Z,52.63
2017-12-04T02:07:57.400Z,51.47
2017-12-04T02:10:25.544Z,55.40
2017-12-04T02:12:53.735Z,49.93
2017-12-04T02:15:21.154Z,51.23
2017-12-04T02:17:48.578Z,49.23
2017-12-04T02:20:16.004Z,45.70
2017-12-04T02:22:46.865Z,36.73
2017-12-04T02:25:14.294Z,36.67
2017-12-04T02:27:41.709Z,37.50
2017-12-04T02:30:09.124Z,38.27
2017-12-04T02:32:36.538Z,36.17
2017-12-04T02:35:04.739Z,39.40
2017-12-04T02:37:33.037Z,33.77
2017-12-04T02:40:00.438Z,37.43
2017-12-04T02:42:27.859Z,44.77
2017-12-04T02:44:55.284Z,45.77
2017-12-04T02:47:22.706Z,48.00
2017-12-04T02:49:50.142Z,51.17
2017-12-04T02:52:17.580Z,50.37
2017-12-04T02:54:44.997Z,55.97
2017-12-04T02:57:13.182Z,45.90
2017-12-04T02:59:40.607Z,50.07
2017-12-04T03:02:08.032Z,55.73
2017-12-04T03:04:35.450Z,48.13
2017-12-04T03:07:02.875Z,58.47
2017-12-04T03:09:30.294Z,53.00
2017-12-04T03:11:58.331Z,53.30
2017-12-04T03:14:25.754Z,50.30
2017-12-04T03:16:53.183Z,45.13
2017-12-04T03:19:21.143Z,48.93
2017-12-04T03:21:48.855Z,48.67
2017-12-04T03:24:16.264Z,46.60
2017-12-04T03:26:44.227Z,46.77
2017-12-04T03:29:11.643Z,51.27
2017-12-04T03:31:39.830Z,46.23
2017-12-04T03:34:07.254Z,46.43
2017-12-04T03:36:34.671Z,49.47
2017-12-04T03:39:02.506Z,49.97
2017-12-04T03:41:31.483Z,46.97
2017-12-04T03:44:01.322Z,48.67
2017-12-04T03:46:28.743Z,49.50
2017-12-04T03:48:56.947Z,49.17
2017-12-04T03:51:25.151Z,49.90
2017-12-04T03:53:52.563Z,53.63
2017-12-04T03:56:20.781Z,55.20
2017-12-04T03:58:49.554Z,52.73
2017-12-04T04:01:17.524Z,49.10
2017-12-04T04:03:45.508Z,51.00
2017-12-04T04:06:12.939Z,53.47
2017-12-04T04:08:42.831Z,47.87
2017-12-04T04:11:10.243Z,52.63
2017-12-04T04:13:37.670Z,50.93
2017-12-04T04:16:05.114Z,53.50
2017-12-04T04:18:33.303Z,48.47
2017-12-04T04:21:01.083Z,47.70
2017-12-04T04:23:29.242Z,50.23
2017-12-04T04:25:56.663Z,50.17
2017-12-04T04:28:24.087Z,48.80
2017-12-04T04:30:51.510Z,53.97
2017-12-04T04:33:18.938Z,49.07
2017-12-04T04:35:46.348Z,52.50
2017-12-04T04:38:13.769Z,50.47
2017-12-04T04:40:42.179Z,54.70
2017-12-04T04:43:09.603Z,54.67
2017-12-04T04:45:37.790Z,58.20
2017-12-04T04:48:05.210Z,52.20
2017-12-04T04:50:32.631Z,56.67
2017-12-04T04:53:00.854Z,51.43
2017-12-04T04:55:29.038Z,56.13
2017-12-04T04:57:57.227Z,51.33
2017-12-04T05:00:25.083Z,49.87
2017-12-04T05:02:53.262Z,48.63
2017-12-04T05:05:21.439Z,49.30
2017-12-04T05:07:48.864Z,45.83
2017-12-04T05:10:16.286Z,47.60
2017-12-04T05:12:44.259Z,43.00
2017-12-04T05:15:11.678Z,52.40
2017-12-04T05:17:40.778Z,47.83
2017-12-04T05:20:08.208Z,48.17
2017-12-04T05:22:35.624Z,45.90
2017-12-04T05:25:03.049Z,41.00
2017-12-04T05:27:30.460Z,44.20
2017-12-04T05:29:58.410Z,48.57
2017-12-04T05:32:25.832Z,47.03
2017-12-04T05:34:53.253Z,37.77
2017-12-04T05:37:21.487Z,40.50
2017-12-04T05:39:49.452Z,36.73
2017-12-04T05:42:16.872Z,36.67
2017-12-04T05:44:45.494Z,38.83
2017-12-04T05:47:12.915Z,43.87
2017-12-04T05:49:41.110Z,38.40
2017-12-04T05:52:09.067Z,35.50
2017-12-04T05:54:36.486Z,37.03
2017-12-04T05:57:05.318Z,41.10
2017-12-04T05:59:32.743Z,35.50
2017-12-04T06:02:00.299Z,38.00
2017-12-04T06:04:28.141Z,36.03
2017-12-04T06:06:55.558Z,42.20
2017-12-04T06:09:22.976Z,41.90
2017-12-04T06:11:50.387Z,35.97
2017-12-04T06:14:17.918Z,38.87
2017-12-04T06:16:46.115Z,37.83
2017-12-04T06:19:13.531Z,36.83
2017-12-04T06:21:42.139Z,38.03
2017-12-04T06:24:09.547Z,41.27
2017-12-04T06:26:37.186Z,43.13
2017-12-04T06:29:10.514Z,37.77
2017-12-04T06:31:39.924Z,40.43
2017-12-04T06:34:07.363Z,40.70
2017-12-04T06:36:34.840Z,45.43
2017-12-04T06:39:02.309Z,41.27
2017-12-04T06:41:29.715Z,48.03
2017-12-04T06:43:57.165Z,44.50
2017-12-04T06:46:26.500Z,43.47
2017-12-04T06:48:53.923Z,51.37
2017-12-04T06:51:21.343Z,48.57
2017-12-04T06:53:49.942Z,47.23
2017-12-04T06:56:17.379Z,50.23
2017-12-04T06:58:44.784Z,44.70
2017-12-04T07:01:12.202Z,46.47
2017-12-04T07:03:39.627Z,45.00
2017-12-04T07:06:07.056Z,48.23
2017-12-04T07:08:34.483Z,46.57
2017-12-04T07:11:01.907Z,37.87
2017-12-04T07:13:30.099Z,46.57
2017-12-04T07:15:58.286Z,42.93
2017-12-04T07:18:26.623Z,44.90
2017-12-04T07:20:54.039Z,34.27
2017-12-04T07:23:21.470Z,36.93
2017-12-04T07:25:48.886Z,34.77
2017-12-04T07:28:16.323Z,34.30
2017-12-04T07:30:43.739Z,39.83
2017-12-04T07:33:11.160Z,35.67
2017-12-04T07:35:38.579Z,34.63
2017-12-04T07:38:06.007Z,42.37
2017-12-04T07:40:34.187Z,38.07
2017-12-04T07:43:01.613Z,39.83
2017-12-04T07:45:29.026Z,37.30
2017-12-04T07:47:56.451Z,35.90
2017-12-04T07:50:24.627Z,38.93
2017-12-04T07:52:52.054Z,38.30
2017-12-04T07:55:19.467Z,39.17
2017-12-04T07:57:47.792Z,39.97
2017-12-04T08:00:15.203Z,32.17
2017-12-04T08:02:42.638Z,40.77
2017-12-04T08:05:10.969Z,36.27
2017-12-04T08:07:38.390Z,36.40
2017-12-04T08:10:05.809Z,37.33
2017-12-04T08:12:33.995Z,35.83
2017-12-04T08:15:01.947Z,35.27
2017-12-04T08:17:30.139Z,27.40
2017-12-04T08:19:57.551Z,31.77
2017-12-04T08:22:25.395Z,31.53
2017-12-04T08:24:52.810Z,34.23
2017-12-04T08:27:20.229Z,28.60
2017-12-04T08:29:47.651Z,28.90
2017-12-04T08:32:15.062Z,31.97
2017-12-04T08:34:42.492Z,30.63
2017-12-04T08:37:09.911Z,31.90
2017-12-04T08:39:39.271Z,28.20
2017-12-04T08:42:06.688Z,26.97
2017-12-04T08:44:34.106Z,29.00
2017-12-04T08:47:02.288Z,26.17
2017-12-04T08:49:29.710Z,32.17
2017-12-04T08:51:57.126Z,30.43
2017-12-04T08:54:24.556Z,33.40
2017-12-04T08:56:51.974Z,33.33
2017-12-04T08:59:19.397Z,31.53
2017-12-04T09:01:46.815Z,26.33
2017-12-04T09:04:15.011Z,29.53
2017-12-04T09:06:42.423Z,28.60
2017-12-04T09:09:09.842Z,22.90
2017-12-04T09:11:37.263Z,29.60
2017-12-04T09:14:05.450Z,26.77
2017-12-04T09:16:32.867Z,31.00
2017-12-04T09:19:00.291Z,28.60
2017-12-04T09:21:27.702Z,28.63
2017-12-04T09:23:55.893Z,26.57
2017-12-04T09:26:23.879Z,25.33
2017-12-04T09:28:51.290Z,29.00
2017-12-04T09:31:19.496Z,31.10
2017-12-04T09:33:46.915Z,25.37
2017-12-04T09:36:15.484Z,24.67
2017-12-04T09:38:43.873Z,29.53
2017-12-04T09:41:11.834Z,22.03
2017-12-04T09:43:39.659Z,24.63
2017-12-04T09:46:08.199Z,24.00
2017-12-04T09:48:35.607Z,26.63
2017-12-04T09:51:03.032Z,31.30
2017-12-04T09:53:30.498Z,22.13
2017-12-04T09:55:58.841Z,24.67
2017-12-04T09:58:26.527Z,27.33
2017-12-04T10:00:53.933Z,21.30
2017-12-04T10:03:21.342Z,25.13
2017-12-04T10:05:48.764Z,30.17
2017-12-04T10:08:16.180Z,23.07
2017-12-04T10:10:43.603Z,23.53
2017-12-04T10:13:11.779Z,23.33
2017-12-04T10:15:39.966Z,21.63
2017-12-04T10:18:07.384Z,23.47
2017-12-04T10:20:34.811Z,23.70
2017-12-04T10:23:02.222Z,26.77
2017-12-04T10:25:31.199Z,22.70
2017-12-04T10:28:02.010Z,24.87
2017-12-04T10:30:29.448Z,24.73
2017-12-04T10:32:56.871Z,24.57
2017-12-04T10:35:24.290Z,26.27
2017-12-04T10:37:51.726Z,25.43
2017-12-04T10:40:19.145Z,26.03
2017-12-04T10:42:46.561Z,22.77
2017-12-04T10:45:13.978Z,24.03
2017-12-04T10:47:41.402Z,25.13
2017-12-04T10:50:10.127Z,25.83
2017-12-04T10:52:37.944Z,20.23
2017-12-04T10:55:05.348Z,24.53
2017-12-04T10:57:33.495Z,26.97
2017-12-04T11:00:00.915Z,25.20
2017-12-04T11:02:28.335Z,24.80
2017-12-04T11:04:55.755Z,25.80
2017-12-04T11:07:23.935Z,26.93
2017-12-04T11:09:51.351Z,25.43
2017-12-04T11:12:18.774Z,27.87
2017-12-04T11:14:46.195Z,25.40
2017-12-04T11:17:14.651Z,26.03
2017-12-04T11:19:42.043Z,28.23
2017-12-04T11:22:09.736Z,25.50
2017-12-04T11:24:37.729Z,30.70
2017-12-04T11:27:05.152Z,26.33
2017-12-04T11:29:47.297Z,30.97
2017-12-04T11:32:14.680Z,26.23
2017-12-04T11:34:50.678Z,33.40
2017-12-04T11:37:18.102Z,31.87
2017-12-04T11:39:47.024Z,29.97
2017-12-04T11:42:14.479Z,28.97
2017-12-04T11:44:41.903Z,26.07
2017-12-04T11:47:10.074Z,31.63
2017-12-04T11:49:38.580Z,22.57
2017-12-04T11:52:06.740Z,28.50
2017-12-04T11:54:34.195Z,24.17
2017-12-04T11:57:02.821Z,26.63
2017-12-04T11:59:30.245Z,27.73
2017-12-04T12:01:58.239Z,26.47
2017-12-04T12:04:25.657Z,31.07
2017-12-04T12:06:53.847Z,28.77
2017-12-04T12:09:21.274Z,27.67
2017-12-04T12:11:48.693Z,26.27
2017-12-04T12:14:17.327Z,25.13
2017-12-04T12:16:45.512Z,28.57
2017-12-04T12:19:13.856Z,23.90
2017-12-04T12:21:43.719Z,27.17
2017-12-04T12:24:11.139Z,29.10
2017-12-04T12:26:39.326Z,24.53
2017-12-04T12:29:08.055Z,31.73
2017-12-04T12:31:35.473Z,26.07
2017-12-04T12:34:04.552Z,25.07
2017-12-04T12:36:32.739Z,25.83
2017-12-04T12:39:00.927Z,26.83
2017-12-04T12:41:28.347Z,25.57
2017-12-04T12:43:58.381Z,26.40
2017-12-04T12:46:26.560Z,26.70
2017-12-04T12:48:54.746Z,25.37
2017-12-04T12:51:22.166Z,24.03
2017-12-04T12:53:49.579Z,24.40
2017-12-04T12:56:17.015Z,23.63
2017-12-04T12:58:45.898Z,22.27
2017-12-04T13:01:14.621Z,23.73
2017-12-04T13:03:42.043Z,22.20
2017-12-04T13:06:09.466Z,19.00
2017-12-04T13:08:36.885Z,22.53
2017-12-04T13:11:04.307Z,18.80
2017-12-04T13:13:32.493Z,19.20
2017-12-04T13:15:59.911Z,19.97
2017-12-04T13:18:27.335Z,19.53
2017-12-04T13:20:54.756Z,20.83
2017-12-04T13:23:22.935Z,16.37
2017-12-04T13:25:50.351Z,12.80
2017-12-04T13:28:19.775Z,15.37
2017-12-04T13:30:47.960Z,15.97
2017-12-04T13:33:27.871Z,12.83
2017-12-04T13:36:07.169Z,9.53
2017-12-04T13:38:34.593Z,14.57
2017-12-04T13:41:02.827Z,20.00
2017-12-04T13:43:30.966Z,10.87
2017-12-04T13:45:58.374Z,14.17
2017-12-04T13:48:25.791Z,12.10
2017-12-04T13:50:53.231Z,12.23
2017-12-04T13:53:20.652Z,11.60
2017-12-04T13:55:48.063Z,10.37
2017-12-04T13:58:23.829Z,13.40
2017-12-04T14:00:51.243Z,10.80
2017-12-04T14:03:19.428Z,12.27
2017-12-04T14:05:46.843Z,9.30
2017-12-04T14:08:14.274Z,12.83
2017-12-04T14:10:41.687Z,12.30
2017-12-04T14:13:17.690Z,10.97
2017-12-04T14:15:45.080Z,12.63
2017-12-04T14:18:12.515Z,12.57
2017-12-04T14:20:40.695Z,10.60
2017-12-04T14:23:08.123Z,9.47
2017-12-04T14:25:36.528Z,9.77
2017-12-04T14:28:04.014Z,12.20
2017-12-04T14:30:32.601Z,13.30
2017-12-04T14:33:00.786Z,12.43
2017-12-04T14:35:28.961Z,8.50
2017-12-04T14:37:56.413Z,9.37
2017-12-04T14:40:23.792Z,8.60
2017-12-04T14:42:51.634Z,11.27
2017-12-04T14:45:19.806Z,9.13
2017-12-04T14:47:48.009Z,9.93
2017-12-04T14:50:15.408Z,9.93
2017-12-04T14:52:43.238Z,10.07
2017-12-04T14:55:11.175Z,9.37
2017-12-04T14:57:39.367Z,14.83
2017-12-04T15:00:07.695Z,11.10
2017-12-04T15:02:35.107Z,9.73
2017-12-04T15:05:02.519Z,11.37
2017-12-04T15:07:30.248Z,8.63
2017-12-04T15:09:57.641Z,6.40
2017-12-04T15:12:25.051Z,8.27
2017-12-04T15:14:52.471Z,9.43
2017-12-04T15:17:20.654Z,9.10
2017-12-04T15:19:48.067Z,9.07
2017-12-04T15:22:15.471Z,7.20
2017-12-04T15:24:43.026Z,12.27
2017-12-04T15:27:11.187Z,9.53
2017-12-04T15:29:40.166Z,8.43
2017-12-04T15:32:07.574Z,9.00
2017-12-04T15:34:35.000Z,10.60
2017-12-04T15:37:03.175Z,11.13
2017-12-04T15:39:30.586Z,9.13
2017-12-04T15:41:57.993Z,11.87
2017-12-04T15:44:25.415Z,10.70
2017-12-04T15:46:52.820Z,7.50
2017-12-04T15:49:20.244Z,8.43
2017-12-04T15:51:48.410Z,6.67
2017-12-04T15:54:16.602Z,12.37
2017-12-04T15:56:45.295Z,9.03
2017-12-04T15:59:12.719Z,11.37
2017-12-04T16:01:40.129Z,8.17
2017-12-04T16:04:07.570Z,13.93
2017-12-04T16:06:35.407Z,7.70
2017-12-04T16:09:03.600Z,8.50
2017-12-04T16:11:32.201Z,9.03
2017-12-04T16:13:59.614Z,9.93
2017-12-04T16:16:27.456Z,6.30
2017-12-04T16:18:54.875Z,8.00
2017-12-04T16:21:22.290Z,13.10
2017-12-04T16:23:50.127Z,7.40
2017-12-04T16:26:17.545Z,11.47
2017-12-04T16:28:44.959Z,15.00
2017-12-04T16:31:12.377Z,13.47
2017-12-04T16:33:39.796Z,9.53
2017-12-04T16:36:07.982Z,11.50
2017-12-04T16:38:36.227Z,11.70
2017-12-04T16:41:03.607Z,10.80
2017-12-04T16:43:31.796Z,17.87
2017-12-04T16:45:59.207Z,14.43
2017-12-04T16:48:27.624Z,15.60
2017-12-04T16:50:57.012Z,12.57
2017-12-04T16:53:24.429Z,15.47
2017-12-04T16:55:51.844Z,15.53
2017-12-04T16:58:20.813Z,15.20
2017-12-04T17:00:48.235Z,14.20
2017-12-04T17:03:15.700Z,19.40
2017-12-04T17:05:43.170Z,17.53
2017-12-04T17:08:10.887Z,16.27
2017-12-04T17:10:39.052Z,20.53
2017-12-04T17:13:07.376Z,18.10
2017-12-04T17:15:34.804Z,22.20
2017-12-04T17:18:02.220Z,19.13
2017-12-04T17:20:34.395Z,16.83
2017-12-04T17:23:02.579Z,15.63
2017-12-04T17:25:30.000Z,21.23
2017-12-04T17:27:57.411Z,20.83
2017-12-04T17:30:24.836Z,22.90
2017-12-04T17:32:53.022Z,22.57
2017-12-04T17:35:20.447Z,27.17
2017-12-04T17:37:47.864Z,16.63
2017-12-04T17:40:15.285Z,23.17
2017-12-04T17:42:43.471Z,25.83
2017-12-04T17:45:10.897Z,25.13
2017-12-04T17:47:40.739Z,20.47
2017-12-04T17:50:08.159Z,20.93
2017-12-04T17:52:35.574Z,17.67
2017-12-04T17:55:15.258Z,24.53
2017-12-04T17:57:42.669Z,19.97
2017-12-04T18:00:10.309Z,21.80
2017-12-04T18:02:38.492Z,17.17
2017-12-04T18:05:05.918Z,23.20
2017-12-04T18:07:35.784Z,22.17
2017-12-04T18:10:03.213Z,18.97
2017-12-04T18:12:30.627Z,21.23
2017-12-04T18:14:58.051Z,21.57
2017-12-04T18:17:25.471Z,20.80
2017-12-04T18:19:53.663Z,22.90
2017-12-04T18:22:21.074Z,21.37
2017-12-04T18:24:48.503Z,23.93
2017-12-04T18:27:15.924Z,23.03
2017-12-04T18:29:43.347Z,21.17
2017-12-04T18:32:10.768Z,27.27
2017-12-04T18:34:50.705Z,24.87
2017-12-04T18:37:18.148Z,22.50
2017-12-04T18:39:45.636Z,20.20
2017-12-04T18:42:13.054Z,23.77
2017-12-04T18:44:41.255Z,23.23
2017-12-04T18:47:08.672Z,19.13
2017-12-04T18:49:36.859Z,22.97
2017-12-04T18:52:04.282Z,21.93
2017-12-04T18:54:31.822Z,24.33
2017-12-04T18:56:59.244Z,19.97
2017-12-04T18:59:26.651Z,20.70
2017-12-04T19:01:54.101Z,17.67
2017-12-04T19:04:22.332Z,17.63
2017-12-04T19:07:01.721Z,23.07
2017-12-04T19:09:29.648Z,18.67
2017-12-04T19:11:57.066Z,25.47
2017-12-04T19:14:25.247Z,21.33
2017-12-04T19:16:53.433Z,21.53
2017-12-04T19:19:20.872Z,25.53
2017-12-04T19:21:49.126Z,19.57
2017-12-04T19:24:16.585Z,22.57
2017-12-04T19:26:44.007Z,18.40
2017-12-04T19:29:11.429Z,22.63
2017-12-04T19:31:39.998Z,24.47
2017-12-04T19:34:08.907Z,25.37
2017-12-04T19:36:37.102Z,20.17
2017-12-04T19:39:04.514Z,19.30
2017-12-04T19:41:31.939Z,19.60
2017-12-04T19:43:59.359Z,21.53
2017-12-04T19:46:26.775Z,20.20
2017-12-04T19:48:54.199Z,23.37
2017-12-04T19:51:21.935Z,24.40
2017-12-04T19:53:50.258Z,21.33
2017-12-04T19:56:17.684Z,19.63
2017-12-04T19:58:45.117Z,23.27
2017-12-04T20:01:13.359Z,22.07
2017-12-04T20:03:40.830Z,24.17
2017-12-04T20:06:08.271Z,21.77
2017-12-04T20:08:35.739Z,21.30
2017-12-04T20:11:03.166Z,21.10
2017-12-04T20:16:23.870Z,28.87
2017-12-04T20:18:51.322Z,28.73
2017-12-04T20:21:18.767Z,19.23
2017-12-04T20:23:46.996Z,20.57
2017-12-04T20:26:14.463Z,23.20
2017-12-04T20:28:41.920Z,19.43
2017-12-04T20:31:09.391Z,21.93
2017-12-04T20:33:37.638Z,18.63
2017-12-04T20:36:05.071Z,22.00
2017-12-04T20:38:32.500Z,18.80
2017-12-04T20:40:59.927Z,20.87
2017-12-04T20:43:27.334Z,28.73
2017-12-04T20:45:54.756Z,24.43
2017-12-04T20:48:22.948Z,21.60
2017-12-04T20:50:50.358Z,29.23
2017-12-04T20:53:17.780Z,22.40
2017-12-04T20:55:45.199Z,25.93
2017-12-04T20:58:13.399Z,20.73
2017-12-04T21:00:40.816Z,20.93
2017-12-04T21:03:08.239Z,20.73
2017-12-04T21:05:35.658Z,23.47
2017-12-04T21:08:15.048Z,21.37
2017-12-04T21:10:54.303Z,23.40
2017-12-04T21:13:33.636Z,21.70
2017-12-04T21:16:26.691Z,21.07
2017-12-04T21:18:54.111Z,25.17
2017-12-04T21:21:21.526Z,22.57
2017-12-04T21:23:52.534Z,22.67
2017-12-04T21:26:19.959Z,26.00
2017-12-04T21:28:47.395Z,20.47
2017-12-04T21:31:14.852Z,22.93
2017-12-04T21:33:42.280Z,21.70
2017-12-04T21:36:10.466Z,22.33
2017-12-04T21:38:39.076Z,25.67
2017-12-04T21:41:07.339Z,25.70
2017-12-04T21:43:34.775Z,24.50
2017-12-04T21:46:03.035Z,22.43
2017-12-04T21:48:31.482Z,25.57
2017-12-04T21:50:58.943Z,28.90
2017-12-04T21:53:26.407Z,24.07
2017-12-04T21:55:54.835Z,22.03
2017-12-04T21:58:23.323Z,23.63
2017-12-04T22:00:50.794Z,23.47
2017-12-04T22:03:18.240Z,23.67
2017-12-04T22:05:46.269Z,23.03
2017-12-04T22:08:13.710Z,22.43
2017-12-04T22:10:41.907Z,21.10
2017-12-04T22:13:09.343Z,21.93
2017-12-04T22:15:37.012Z,27.13
2017-12-04T22:18:05.208Z,27.00
2017-12-04T22:20:33.785Z,23.97
2017-12-04T22:23:02.440Z,25.43
2017-12-04T22:25:29.931Z,22.47
2017-12-04T22:27:57.401Z,19.70
2017-12-04T22:30:24.888Z,26.33
2017-12-04T22:32:52.797Z,24.07
2017-12-04T22:35:20.847Z,22.97
2017-12-04T22:37:48.316Z,27.07
2017-12-04T22:40:15.764Z,23.07
2017-12-04T22:42:43.619Z,20.37
2017-12-04T22:45:11.722Z,23.23
2017-12-04T22:47:39.153Z,22.87
2017-12-04T22:50:06.713Z,22.73
2017-12-04T22:52:34.172Z,22.03
2017-12-04T22:55:01.929Z,20.20
2017-12-04T22:57:29.559Z,23.57
2017-12-04T22:59:57.787Z,21.00
2017-12-04T23:02:26.540Z,25.70
2017-12-04T23:04:53.974Z,22.60
2017-12-04T23:07:22.167Z,24.17
2017-12-04T23:09:49.592Z,25.07
2017-12-04T23:12:17.029Z,27.03
2017-12-04T23:14:45.459Z,24.13
2017-12-04T23:17:12.908Z,24.90
2017-12-04T23:19:41.144Z,22.00
2017-12-04T23:22:08.896Z,23.43
2017-12-04T23:24:36.343Z,27.00
2017-12-04T23:27:04.172Z,27.33
2017-12-04T23:29:35.668Z,30.33
2017-12-04T23:32:03.111Z,29.70
2017-12-04T23:34:30.847Z,31.80
2017-12-04T23:36:58.823Z,32.03
2017-12-04T23:39:26.817Z,30.03
2017-12-04T23:41:54.447Z,31.00
2017-12-04T23:44:21.864Z,31.37
2017-12-04T23:46:49.299Z,31.60
2017-12-04T23:49:16.769Z,29.27
2017-12-04T23:51:45.221Z,30.53
2017-12-04T23:54:12.639Z,33.90
2017-12-04T23:56:40.834Z,29.27
2017-12-04T23:59:08.680Z,29.13
